sensor_id;sensor_type;location;lat;lon;timestamp;P1;durP1;ratioP1;P2;durP2;ratioP2
69534;SDS011;56754;51.568;5.048;2022-12-08T00:01:14;6.70;;;2.80;;
69534;SDS011;56754;51.568;5.048;2022-12-08T00:03:41;7.13;;;2.75;;
69534;SDS011;56754;51.568;5.048;2022-12-08T00:06:20;7.77;;;2.97;;
69534;SDS011;56754;51.568;5.048;2022-12-08T00:08:46;5.75;;;2.70;;
69534;SDS011;56754;51.568;5.048;2022-12-08T00:11:12;5.67;;;2.53;;
69534;SDS011;56754;51.568;5.048;2022-12-08T00:13:38;6.78;;;3.25;;
69534;SDS011;56754;51.568;5.048;2022-12-08T00:16:03;5.33;;;2.40;;
69534;SDS011;56754;51.568;5.048;2022-12-08T00:18:29;5.90;;;2.65;;
69534;SDS011;56754;51.568;5.048;2022-12-08T00:20:55;7.20;;;2.70;;
69534;SDS011;56754;51.568;5.048;2022-12-08T00:23:20;6.28;;;2.90;;
69534;SDS011;56754;51.568;5.048;2022-12-08T00:25:46;6.27;;;2.60;;
69534;SDS011;56754;51.568;5.048;2022-12-08T00:28:11;6.40;;;2.57;;
69534;SDS011;56754;51.568;5.048;2022-12-08T00:30:38;6.10;;;2.70;;
69534;SDS011;56754;51.568;5.048;2022-12-08T00:33:04;5.75;;;2.58;;
69534;SDS011;56754;51.568;5.048;2022-12-08T00:35:29;7.00;;;2.40;;
69534;SDS011;56754;51.568;5.048;2022-12-08T00:37:54;5.40;;;2.67;;
69534;SDS011;56754;51.568;5.048;2022-12-08T00:40:19;6.70;;;2.70;;
69534;SDS011;56754;51.568;5.048;2022-12-08T00:42:45;7.00;;;3.10;;
69534;SDS011;56754;51.568;5.048;2022-12-08T00:45:10;6.63;;;3.00;;
69534;SDS011;56754;51.568;5.048;2022-12-08T00:47:35;6.77;;;2.60;;
69534;SDS011;56754;51.568;5.048;2022-12-08T00:50:01;5.20;;;2.23;;
69534;SDS011;56754;51.568;5.048;2022-12-08T00:52:26;6.67;;;2.50;;
69534;SDS011;56754;51.568;5.048;2022-12-08T00:54:51;5.50;;;2.33;;
69534;SDS011;56754;51.568;5.048;2022-12-08T00:57:16;6.90;;;2.40;;
69534;SDS011;56754;51.568;5.048;2022-12-08T00:59:42;6.23;;;2.60;;
69534;SDS011;56754;51.568;5.048;2022-12-08T01:02:07;7.03;;;2.90;;
69534;SDS011;56754;51.568;5.048;2022-12-08T01:04:32;5.07;;;2.40;;
69534;SDS011;56754;51.568;5.048;2022-12-08T01:06:57;6.30;;;2.50;;
69534;SDS011;56754;51.568;5.048;2022-12-08T01:09:23;5.07;;;2.20;;
69534;SDS011;56754;51.568;5.048;2022-12-08T01:11:48;6.47;;;2.27;;
69534;SDS011;56754;51.568;5.048;2022-12-08T01:14:13;5.53;;;2.37;;
69534;SDS011;56754;51.568;5.048;2022-12-08T01:16:39;7.13;;;2.38;;
69534;SDS011;56754;51.568;5.048;2022-12-08T01:19:04;6.70;;;2.30;;
69534;SDS011;56754;51.568;5.048;2022-12-08T01:21:30;5.63;;;2.43;;
69534;SDS011;56754;51.568;5.048;2022-12-08T01:23:55;5.03;;;2.30;;
69534;SDS011;56754;51.568;5.048;2022-12-08T01:26:23;5.18;;;2.50;;
69534;SDS011;56754;51.568;5.048;2022-12-08T01:28:49;5.70;;;2.30;;
69534;SDS011;56754;51.568;5.048;2022-12-08T01:31:15;5.20;;;2.20;;
69534;SDS011;56754;51.568;5.048;2022-12-08T01:33:42;4.22;;;2.10;;
69534;SDS011;56754;51.568;5.048;2022-12-08T01:36:08;6.97;;;2.40;;
69534;SDS011;56754;51.568;5.048;2022-12-08T01:38:46;5.03;;;2.00;;
69534;SDS011;56754;51.568;5.048;2022-12-08T01:41:15;5.33;;;2.00;;
69534;SDS011;56754;51.568;5.048;2022-12-08T01:43:42;6.65;;;2.10;;
69534;SDS011;56754;51.568;5.048;2022-12-08T01:46:14;5.97;;;2.20;;
69534;SDS011;56754;51.568;5.048;2022-12-08T01:48:39;4.40;;;2.00;;
69534;SDS011;56754;51.568;5.048;2022-12-08T01:51:05;5.80;;;1.70;;
69534;SDS011;56754;51.568;5.048;2022-12-08T01:53:30;4.87;;;1.80;;
69534;SDS011;56754;51.568;5.048;2022-12-08T01:58:29;5.22;;;1.70;;
69534;SDS011;56754;51.568;5.048;2022-12-08T02:01:00;5.28;;;1.60;;
69534;SDS011;56754;51.568;5.048;2022-12-08T02:03:30;4.80;;;1.90;;
69534;SDS011;56754;51.568;5.048;2022-12-08T02:06:02;5.55;;;1.90;;
69534;SDS011;56754;51.568;5.048;2022-12-08T02:08:28;3.67;;;1.57;;
69534;SDS011;56754;51.568;5.048;2022-12-08T02:10:55;3.65;;;1.30;;
69534;SDS011;56754;51.568;5.048;2022-12-08T02:13:20;6.20;;;1.77;;
69534;SDS011;56754;51.568;5.048;2022-12-08T02:24:55;3.67;;;1.38;;
69534;SDS011;56754;51.568;5.048;2022-12-08T02:33:38;3.80;;;1.20;;
69534;SDS011;56754;51.568;5.048;2022-12-08T02:36:14;4.88;;;1.40;;
69534;SDS011;56754;51.568;5.048;2022-12-08T02:43:54;4.43;;;1.20;;
69534;SDS011;56754;51.568;5.048;2022-12-08T02:46:38;3.45;;;1.38;;
69534;SDS011;56754;51.568;5.048;2022-12-08T02:49:08;3.40;;;0.98;;
69534;SDS011;56754;51.568;5.048;2022-12-08T02:51:33;4.03;;;1.10;;
69534;SDS011;56754;51.568;5.048;2022-12-08T02:53:59;3.73;;;1.30;;
69534;SDS011;56754;51.568;5.048;2022-12-08T02:59:59;4.20;;;1.05;;
69534;SDS011;56754;51.568;5.048;2022-12-08T03:02:41;3.42;;;1.15;;
69534;SDS011;56754;51.568;5.048;2022-12-08T03:05:12;2.95;;;1.10;;
69534;SDS011;56754;51.568;5.048;2022-12-08T03:13:05;3.22;;;1.20;;
69534;SDS011;56754;51.568;5.048;2022-12-08T03:15:35;3.78;;;1.13;;
69534;SDS011;56754;51.568;5.048;2022-12-08T03:18:02;4.10;;;1.23;;
69534;SDS011;56754;51.568;5.048;2022-12-08T03:20:32;4.77;;;1.43;;
69534;SDS011;56754;51.568;5.048;2022-12-08T03:22:59;4.82;;;1.60;;
69534;SDS011;56754;51.568;5.048;2022-12-08T03:25:29;3.90;;;1.60;;
69534;SDS011;56754;51.568;5.048;2022-12-08T03:27:57;3.92;;;1.30;;
69534;SDS011;56754;51.568;5.048;2022-12-08T03:30:23;4.40;;;1.70;;
69534;SDS011;56754;51.568;5.048;2022-12-08T03:32:53;5.10;;;1.83;;
69534;SDS011;56754;51.568;5.048;2022-12-08T03:35:26;4.10;;;1.73;;
69534;SDS011;56754;51.568;5.048;2022-12-08T03:38:05;6.53;;;2.07;;
69534;SDS011;56754;51.568;5.048;2022-12-08T03:40:32;5.28;;;2.20;;
69534;SDS011;56754;51.568;5.048;2022-12-08T03:42:58;4.75;;;1.80;;
69534;SDS011;56754;51.568;5.048;2022-12-08T03:45:23;3.83;;;1.63;;
69534;SDS011;56754;51.568;5.048;2022-12-08T03:47:49;6.13;;;2.33;;
69534;SDS011;56754;51.568;5.048;2022-12-08T03:50:15;4.75;;;2.10;;
69534;SDS011;56754;51.568;5.048;2022-12-08T03:52:40;4.53;;;2.10;;
69534;SDS011;56754;51.568;5.048;2022-12-08T03:55:05;5.80;;;2.10;;
69534;SDS011;56754;51.568;5.048;2022-12-08T03:57:31;5.27;;;2.10;;
69534;SDS011;56754;51.568;5.048;2022-12-08T03:59:56;4.87;;;1.77;;
69534;SDS011;56754;51.568;5.048;2022-12-08T04:02:22;5.20;;;1.60;;
69534;SDS011;56754;51.568;5.048;2022-12-08T04:04:47;5.67;;;1.70;;
69534;SDS011;56754;51.568;5.048;2022-12-08T04:07:12;5.47;;;1.90;;
69534;SDS011;56754;51.568;5.048;2022-12-08T04:09:37;5.00;;;1.80;;
69534;SDS011;56754;51.568;5.048;2022-12-08T04:12:03;5.40;;;1.60;;
69534;SDS011;56754;51.568;5.048;2022-12-08T04:14:28;3.92;;;1.40;;
69534;SDS011;56754;51.568;5.048;2022-12-08T04:16:54;4.90;;;1.93;;
69534;SDS011;56754;51.568;5.048;2022-12-08T04:19:19;4.27;;;1.50;;
69534;SDS011;56754;51.568;5.048;2022-12-08T04:21:44;3.60;;;1.40;;
69534;SDS011;56754;51.568;5.048;2022-12-08T04:24:09;4.50;;;1.70;;
69534;SDS011;56754;51.568;5.048;2022-12-08T04:26:35;5.47;;;1.40;;
69534;SDS011;56754;51.568;5.048;2022-12-08T04:29:00;3.60;;;1.60;;
69534;SDS011;56754;51.568;5.048;2022-12-08T04:31:25;4.37;;;1.33;;
69534;SDS011;56754;51.568;5.048;2022-12-08T04:33:50;3.53;;;1.20;;
69534;SDS011;56754;51.568;5.048;2022-12-08T04:36:16;3.53;;;1.10;;
69534;SDS011;56754;51.568;5.048;2022-12-08T04:38:41;4.27;;;1.00;;
69534;SDS011;56754;51.568;5.048;2022-12-08T04:41:07;2.97;;;0.90;;
69534;SDS011;56754;51.568;5.048;2022-12-08T04:43:32;3.67;;;1.07;;
69534;SDS011;56754;51.568;5.048;2022-12-08T04:45:57;2.97;;;0.82;;
69534;SDS011;56754;51.568;5.048;2022-12-08T04:48:23;2.40;;;0.90;;
69534;SDS011;56754;51.568;5.048;2022-12-08T04:50:48;3.80;;;1.10;;
69534;SDS011;56754;51.568;5.048;2022-12-08T04:53:13;2.33;;;0.83;;
69534;SDS011;56754;51.568;5.048;2022-12-08T04:55:42;2.93;;;0.87;;
69534;SDS011;56754;51.568;5.048;2022-12-08T04:58:12;4.32;;;0.90;;
69534;SDS011;56754;51.568;5.048;2022-12-08T05:00:41;3.00;;;0.98;;
69534;SDS011;56754;51.568;5.048;2022-12-08T05:03:07;2.40;;;0.50;;
69534;SDS011;56754;51.568;5.048;2022-12-08T05:05:32;4.25;;;0.80;;
69534;SDS011;56754;51.568;5.048;2022-12-08T05:07:58;2.37;;;0.80;;
69534;SDS011;56754;51.568;5.048;2022-12-08T05:10:23;3.13;;;0.70;;
69534;SDS011;56754;51.568;5.048;2022-12-08T05:12:48;2.97;;;0.80;;
69534;SDS011;56754;51.568;5.048;2022-12-08T05:15:13;2.80;;;0.90;;
69534;SDS011;56754;51.568;5.048;2022-12-08T05:17:39;3.57;;;0.90;;
69534;SDS011;56754;51.568;5.048;2022-12-08T05:20:04;2.30;;;0.70;;
69534;SDS011;56754;51.568;5.048;2022-12-08T05:22:30;2.38;;;0.68;;
69534;SDS011;56754;51.568;5.048;2022-12-08T05:24:55;3.73;;;0.70;;
69534;SDS011;56754;51.568;5.048;2022-12-08T05:27:20;2.50;;;0.70;;
69534;SDS011;56754;51.568;5.048;2022-12-08T05:29:46;2.97;;;0.80;;
69534;SDS011;56754;51.568;5.048;2022-12-08T05:32:11;2.78;;;0.70;;
69534;SDS011;56754;51.568;5.048;2022-12-08T05:34:36;4.50;;;0.80;;
69534;SDS011;56754;51.568;5.048;2022-12-08T05:37:01;3.47;;;0.80;;
69534;SDS011;56754;51.568;5.048;2022-12-08T05:39:27;2.67;;;0.90;;
69534;SDS011;56754;51.568;5.048;2022-12-08T05:41:52;3.57;;;0.63;;
69534;SDS011;56754;51.568;5.048;2022-12-08T05:44:17;2.47;;;0.60;;
69534;SDS011;56754;51.568;5.048;2022-12-08T05:46:43;2.07;;;0.50;;
69534;SDS011;56754;51.568;5.048;2022-12-08T05:49:08;2.77;;;0.60;;
69534;SDS011;56754;51.568;5.048;2022-12-08T05:51:33;2.30;;;0.50;;
69534;SDS011;56754;51.568;5.048;2022-12-08T05:53:58;2.53;;;0.53;;
69534;SDS011;56754;51.568;5.048;2022-12-08T05:56:24;3.20;;;0.50;;
69534;SDS011;56754;51.568;5.048;2022-12-08T05:58:49;2.70;;;0.63;;
69534;SDS011;56754;51.568;5.048;2022-12-08T06:01:19;3.30;;;0.60;;
69534;SDS011;56754;51.568;5.048;2022-12-08T06:03:48;3.10;;;0.40;;
69534;SDS011;56754;51.568;5.048;2022-12-08T06:06:13;2.50;;;0.50;;
69534;SDS011;56754;51.568;5.048;2022-12-08T06:08:38;2.17;;;0.50;;
69534;SDS011;56754;51.568;5.048;2022-12-08T06:11:04;2.00;;;0.50;;
69534;SDS011;56754;51.568;5.048;2022-12-08T06:13:29;2.23;;;0.30;;
69534;SDS011;56754;51.568;5.048;2022-12-08T06:15:54;4.33;;;0.43;;
69534;SDS011;56754;51.568;5.048;2022-12-08T06:18:19;1.60;;;0.30;;
69534;SDS011;56754;51.568;5.048;2022-12-08T06:20:45;3.23;;;0.50;;
69534;SDS011;56754;51.568;5.048;2022-12-08T06:23:10;2.23;;;0.40;;
69534;SDS011;56754;51.568;5.048;2022-12-08T06:25:37;3.07;;;0.50;;
69534;SDS011;56754;51.568;5.048;2022-12-08T06:28:03;2.72;;;0.52;;
69534;SDS011;56754;51.568;5.048;2022-12-08T06:30:29;1.50;;;0.40;;
69534;SDS011;56754;51.568;5.048;2022-12-08T06:32:54;2.03;;;0.40;;
69534;SDS011;56754;51.568;5.048;2022-12-08T06:35:19;2.67;;;0.43;;
69534;SDS011;56754;51.568;5.048;2022-12-08T06:37:45;2.73;;;0.60;;
69534;SDS011;56754;51.568;5.048;2022-12-08T06:40:10;1.80;;;0.40;;
69534;SDS011;56754;51.568;5.048;2022-12-08T06:42:36;3.40;;;0.60;;
69534;SDS011;56754;51.568;5.048;2022-12-08T06:45:01;2.03;;;0.50;;
69534;SDS011;56754;51.568;5.048;2022-12-08T06:47:26;2.60;;;0.33;;
69534;SDS011;56754;51.568;5.048;2022-12-08T06:49:51;2.43;;;0.40;;
69534;SDS011;56754;51.568;5.048;2022-12-08T06:52:17;1.93;;;0.40;;
69534;SDS011;56754;51.568;5.048;2022-12-08T06:54:42;2.77;;;0.43;;
69534;SDS011;56754;51.568;5.048;2022-12-08T06:57:07;3.58;;;0.75;;
69534;SDS011;56754;51.568;5.048;2022-12-08T06:59:33;2.40;;;0.60;;
69534;SDS011;56754;51.568;5.048;2022-12-08T07:01:58;2.80;;;0.40;;
69534;SDS011;56754;51.568;5.048;2022-12-08T07:04:23;2.03;;;0.50;;
69534;SDS011;56754;51.568;5.048;2022-12-08T07:06:48;3.60;;;0.53;;
69534;SDS011;56754;51.568;5.048;2022-12-08T07:09:14;2.07;;;0.40;;
69534;SDS011;56754;51.568;5.048;2022-12-08T07:11:39;2.97;;;0.50;;
69534;SDS011;56754;51.568;5.048;2022-12-08T07:14:04;2.30;;;0.50;;
69534;SDS011;56754;51.568;5.048;2022-12-08T07:16:30;1.63;;;0.50;;
69534;SDS011;56754;51.568;5.048;2022-12-08T07:18:55;2.57;;;0.60;;
69534;SDS011;56754;51.568;5.048;2022-12-08T07:21:20;5.20;;;0.53;;
69534;SDS011;56754;51.568;5.048;2022-12-08T07:23:46;2.03;;;0.47;;
69534;SDS011;56754;51.568;5.048;2022-12-08T07:26:13;3.53;;;0.80;;
69534;SDS011;56754;51.568;5.048;2022-12-08T07:28:39;3.07;;;0.80;;
69534;SDS011;56754;51.568;5.048;2022-12-08T07:31:05;2.53;;;0.55;;
69534;SDS011;56754;51.568;5.048;2022-12-08T07:33:32;5.72;;;0.70;;
69534;SDS011;56754;51.568;5.048;2022-12-08T07:35:59;4.20;;;0.82;;
69534;SDS011;56754;51.568;5.048;2022-12-08T07:38:26;3.43;;;0.60;;
69534;SDS011;56754;51.568;5.048;2022-12-08T07:40:51;2.85;;;0.60;;
69534;SDS011;56754;51.568;5.048;2022-12-08T07:43:17;3.28;;;0.70;;
69534;SDS011;56754;51.568;5.048;2022-12-08T07:45:44;2.22;;;0.60;;
69534;SDS011;56754;51.568;5.048;2022-12-08T07:48:09;2.83;;;0.60;;
69534;SDS011;56754;51.568;5.048;2022-12-08T07:50:34;3.53;;;0.80;;
69534;SDS011;56754;51.568;5.048;2022-12-08T07:53:00;2.60;;;0.60;;
69534;SDS011;56754;51.568;5.048;2022-12-08T07:55:25;3.27;;;0.50;;
69534;SDS011;56754;51.568;5.048;2022-12-08T07:57:50;3.10;;;0.50;;
69534;SDS011;56754;51.568;5.048;2022-12-08T08:00:16;2.77;;;0.63;;
69534;SDS011;56754;51.568;5.048;2022-12-08T08:02:42;3.47;;;0.60;;
69534;SDS011;56754;51.568;5.048;2022-12-08T08:05:08;2.33;;;0.40;;
69534;SDS011;56754;51.568;5.048;2022-12-08T08:07:34;3.00;;;0.43;;
69534;SDS011;56754;51.568;5.048;2022-12-08T08:09:59;2.90;;;0.60;;
69534;SDS011;56754;51.568;5.048;2022-12-08T08:12:25;1.20;;;0.30;;
69534;SDS011;56754;51.568;5.048;2022-12-08T08:14:50;2.33;;;0.43;;
69534;SDS011;56754;51.568;5.048;2022-12-08T08:17:15;2.33;;;0.60;;
69534;SDS011;56754;51.568;5.048;2022-12-08T08:19:40;4.27;;;0.70;;
69534;SDS011;56754;51.568;5.048;2022-12-08T08:22:06;2.07;;;0.50;;
69534;SDS011;56754;51.568;5.048;2022-12-08T08:24:31;2.30;;;0.40;;
69534;SDS011;56754;51.568;5.048;2022-12-08T08:26:56;2.03;;;0.43;;
69534;SDS011;56754;51.568;5.048;2022-12-08T08:29:22;3.47;;;0.60;;
69534;SDS011;56754;51.568;5.048;2022-12-08T08:31:47;2.10;;;0.50;;
69534;SDS011;56754;51.568;5.048;2022-12-08T08:34:13;1.77;;;0.40;;
69534;SDS011;56754;51.568;5.048;2022-12-08T08:36:39;2.10;;;0.40;;
69534;SDS011;56754;51.568;5.048;2022-12-08T08:39:04;3.33;;;0.53;;
69534;SDS011;56754;51.568;5.048;2022-12-08T08:41:29;2.77;;;0.50;;
69534;SDS011;56754;51.568;5.048;2022-12-08T08:43:55;2.37;;;0.57;;
69534;SDS011;56754;51.568;5.048;2022-12-08T08:46:20;2.60;;;0.40;;
69534;SDS011;56754;51.568;5.048;2022-12-08T08:48:45;2.63;;;0.60;;
69534;SDS011;56754;51.568;5.048;2022-12-08T08:51:12;3.00;;;0.43;;
69534;SDS011;56754;51.568;5.048;2022-12-08T08:53:38;2.47;;;0.50;;
69534;SDS011;56754;51.568;5.048;2022-12-08T08:56:08;2.17;;;0.40;;
69534;SDS011;56754;51.568;5.048;2022-12-08T08:58:34;2.97;;;0.40;;
69534;SDS011;56754;51.568;5.048;2022-12-08T09:01:00;2.00;;;0.50;;
69534;SDS011;56754;51.568;5.048;2022-12-08T09:03:25;1.77;;;0.30;;
69534;SDS011;56754;51.568;5.048;2022-12-08T09:05:50;2.77;;;0.50;;
69534;SDS011;56754;51.568;5.048;2022-12-08T09:08:16;3.30;;;0.60;;
69534;SDS011;56754;51.568;5.048;2022-12-08T09:10:41;2.90;;;0.40;;
69534;SDS011;56754;51.568;5.048;2022-12-08T09:13:06;1.13;;;0.30;;
69534;SDS011;56754;51.568;5.048;2022-12-08T09:15:31;1.90;;;0.40;;
69534;SDS011;56754;51.568;5.048;2022-12-08T09:17:57;1.90;;;0.40;;
69534;SDS011;56754;51.568;5.048;2022-12-08T09:20:22;2.95;;;0.40;;
69534;SDS011;56754;51.568;5.048;2022-12-08T09:22:47;4.40;;;0.50;;
69534;SDS011;56754;51.568;5.048;2022-12-08T09:25:12;2.90;;;0.50;;
69534;SDS011;56754;51.568;5.048;2022-12-08T09:27:38;3.20;;;0.50;;
69534;SDS011;56754;51.568;5.048;2022-12-08T09:30:03;4.50;;;0.50;;
69534;SDS011;56754;51.568;5.048;2022-12-08T09:32:29;2.83;;;0.35;;
69534;SDS011;56754;51.568;5.048;2022-12-08T09:34:54;2.57;;;0.50;;
69534;SDS011;56754;51.568;5.048;2022-12-08T09:37:19;3.23;;;0.50;;
69534;SDS011;56754;51.568;5.048;2022-12-08T09:39:45;4.07;;;0.50;;
69534;SDS011;56754;51.568;5.048;2022-12-08T09:42:10;1.73;;;0.40;;
69534;SDS011;56754;51.568;5.048;2022-12-08T09:44:40;2.40;;;0.50;;
69534;SDS011;56754;51.568;5.048;2022-12-08T09:47:14;2.65;;;0.50;;
69534;SDS011;56754;51.568;5.048;2022-12-08T09:49:47;2.63;;;0.40;;
69534;SDS011;56754;51.568;5.048;2022-12-08T09:52:23;3.88;;;0.50;;
69534;SDS011;56754;51.568;5.048;2022-12-08T09:54:51;2.13;;;0.40;;
69534;SDS011;56754;51.568;5.048;2022-12-08T09:57:19;2.37;;;0.50;;
69534;SDS011;56754;51.568;5.048;2022-12-08T09:59:50;1.30;;;0.35;;
69534;SDS011;56754;51.568;5.048;2022-12-08T10:02:23;3.17;;;0.60;;
69534;SDS011;56754;51.568;5.048;2022-12-08T10:04:50;1.23;;;0.30;;
69534;SDS011;56754;51.568;5.048;2022-12-08T10:10:15;3.07;;;0.40;;
69534;SDS011;56754;51.568;5.048;2022-12-08T10:12:58;2.42;;;0.40;;
69534;SDS011;56754;51.568;5.048;2022-12-08T10:18:29;1.85;;;0.50;;
69534;SDS011;56754;51.568;5.048;2022-12-08T10:20:57;2.55;;;0.50;;
69534;SDS011;56754;51.568;5.048;2022-12-08T10:23:45;3.63;;;0.67;;
69534;SDS011;56754;51.568;5.048;2022-12-08T10:26:15;5.18;;;0.63;;
69534;SDS011;56754;51.568;5.048;2022-12-08T10:28:42;3.05;;;0.85;;
69534;SDS011;56754;51.568;5.048;2022-12-08T10:31:21;2.72;;;0.60;;
69534;SDS011;56754;51.568;5.048;2022-12-08T10:33:51;4.23;;;0.67;;
69534;SDS011;56754;51.568;5.048;2022-12-08T10:36:21;3.03;;;0.60;;
69534;SDS011;56754;51.568;5.048;2022-12-08T10:38:47;3.53;;;0.60;;
69534;SDS011;56754;51.568;5.048;2022-12-08T10:41:13;3.17;;;0.60;;
69534;SDS011;56754;51.568;5.048;2022-12-08T10:43:43;2.63;;;0.60;;
69534;SDS011;56754;51.568;5.048;2022-12-08T10:46:21;1.90;;;0.50;;
69534;SDS011;56754;51.568;5.048;2022-12-08T10:48:50;2.47;;;0.68;;
69534;SDS011;56754;51.568;5.048;2022-12-08T10:51:34;3.72;;;0.70;;
69534;SDS011;56754;51.568;5.048;2022-12-08T10:54:02;3.23;;;0.60;;
69534;SDS011;56754;51.568;5.048;2022-12-08T10:56:28;2.90;;;0.60;;
69534;SDS011;56754;51.568;5.048;2022-12-08T11:01:40;1.90;;;0.50;;
69534;SDS011;56754;51.568;5.048;2022-12-08T11:04:53;1.95;;;0.55;;
69534;SDS011;56754;51.568;5.048;2022-12-08T11:06:59;2.85;;;0.68;;
69534;SDS011;56754;51.568;5.048;2022-12-08T11:09:31;3.00;;;0.70;;
69534;SDS011;56754;51.568;5.048;2022-12-08T11:12:00;2.80;;;0.80;;
69534;SDS011;56754;51.568;5.048;2022-12-08T11:14:32;3.03;;;0.60;;
69534;SDS011;56754;51.568;5.048;2022-12-08T11:17:08;3.67;;;0.65;;
69534;SDS011;56754;51.568;5.048;2022-12-08T11:19:41;2.25;;;0.50;;
69534;SDS011;56754;51.568;5.048;2022-12-08T11:24:52;3.03;;;0.57;;
69534;SDS011;56754;51.568;5.048;2022-12-08T11:27:24;2.67;;;0.52;;
69534;SDS011;56754;51.568;5.048;2022-12-08T11:29:50;3.60;;;0.60;;
69534;SDS011;56754;51.568;5.048;2022-12-08T11:32:15;2.27;;;0.50;;
69534;SDS011;56754;51.568;5.048;2022-12-08T11:34:45;2.63;;;0.43;;
69534;SDS011;56754;51.568;5.048;2022-12-08T11:37:25;2.13;;;0.60;;
69534;SDS011;56754;51.568;5.048;2022-12-08T11:39:56;2.60;;;0.50;;
69534;SDS011;56754;51.568;5.048;2022-12-08T11:42:25;2.45;;;0.50;;
69534;SDS011;56754;51.568;5.048;2022-12-08T11:45:33;2.15;;;0.50;;
69534;SDS011;56754;51.568;5.048;2022-12-08T11:48:00;4.17;;;0.60;;
69534;SDS011;56754;51.568;5.048;2022-12-08T11:50:34;2.85;;;0.70;;
69534;SDS011;56754;51.568;5.048;2022-12-08T11:53:08;2.60;;;0.57;;
69534;SDS011;56754;51.568;5.048;2022-12-08T11:55:42;3.83;;;0.80;;
69534;SDS011;56754;51.568;5.048;2022-12-08T12:00:45;3.73;;;0.50;;
69534;SDS011;56754;51.568;5.048;2022-12-08T12:03:19;2.10;;;0.35;;
69534;SDS011;56754;51.568;5.048;2022-12-08T12:08:55;3.55;;;0.40;;
69534;SDS011;56754;51.568;5.048;2022-12-08T12:20:03;1.50;;;0.40;;
69534;SDS011;56754;51.568;5.048;2022-12-08T12:22:46;1.92;;;0.40;;
69534;SDS011;56754;51.568;5.048;2022-12-08T12:25:17;1.85;;;0.40;;
69534;SDS011;56754;51.568;5.048;2022-12-08T12:27:44;4.68;;;0.50;;
69534;SDS011;56754;51.568;5.048;2022-12-08T12:32:50;4.07;;;0.50;;
69534;SDS011;56754;51.568;5.048;2022-12-08T12:35:26;3.40;;;0.50;;
69534;SDS011;56754;51.568;5.048;2022-12-08T12:38:07;4.75;;;0.65;;
69534;SDS011;56754;51.568;5.048;2022-12-08T12:40:41;3.67;;;0.60;;
69534;SDS011;56754;51.568;5.048;2022-12-08T12:43:11;2.40;;;0.50;;
69534;SDS011;56754;51.568;5.048;2022-12-08T12:45:46;2.55;;;0.60;;
69534;SDS011;56754;51.568;5.048;2022-12-08T12:48:13;1.50;;;0.50;;
69534;SDS011;56754;51.568;5.048;2022-12-08T12:50:45;2.35;;;0.80;;
69534;SDS011;56754;51.568;5.048;2022-12-08T13:03:33;2.08;;;0.90;;
69534;SDS011;56754;51.568;5.048;2022-12-08T13:05:59;2.60;;;1.00;;
69534;SDS011;56754;51.568;5.048;2022-12-08T13:08:26;2.40;;;0.70;;
69534;SDS011;56754;51.568;5.048;2022-12-08T13:10:58;2.90;;;1.05;;
69534;SDS011;56754;51.568;5.048;2022-12-08T13:13:26;4.07;;;1.20;;
69534;SDS011;56754;51.568;5.048;2022-12-08T13:18:45;2.80;;;1.27;;
69534;SDS011;56754;51.568;5.048;2022-12-08T13:21:14;2.77;;;0.90;;
69534;SDS011;56754;51.568;5.048;2022-12-08T13:29:29;2.75;;;1.10;;
69534;SDS011;56754;51.568;5.048;2022-12-08T13:31:56;3.65;;;1.00;;
69534;SDS011;56754;51.568;5.048;2022-12-08T13:44:42;2.28;;;0.90;;
69534;SDS011;56754;51.568;5.048;2022-12-08T13:47:10;3.07;;;0.83;;
69534;SDS011;56754;51.568;5.048;2022-12-08T13:49:45;2.35;;;0.70;;
69534;SDS011;56754;51.568;5.048;2022-12-08T13:52:20;2.13;;;0.70;;
69534;SDS011;56754;51.568;5.048;2022-12-08T13:55:24;3.63;;;0.60;;
69534;SDS011;56754;51.568;5.048;2022-12-08T13:57:59;1.70;;;0.50;;
69534;SDS011;56754;51.568;5.048;2022-12-08T14:00:24;2.57;;;0.50;;
69534;SDS011;56754;51.568;5.048;2022-12-08T14:02:51;1.27;;;0.30;;
69534;SDS011;56754;51.568;5.048;2022-12-08T14:05:20;2.72;;;0.40;;
69534;SDS011;56754;51.568;5.048;2022-12-08T14:07:48;1.30;;;0.30;;
69534;SDS011;56754;51.568;5.048;2022-12-08T14:10:24;2.90;;;0.50;;
69534;SDS011;56754;51.568;5.048;2022-12-08T14:12:59;3.97;;;0.32;;
69534;SDS011;56754;51.568;5.048;2022-12-08T14:15:27;0.88;;;0.20;;
69534;SDS011;56754;51.568;5.048;2022-12-08T14:17:56;1.73;;;0.30;;
69534;SDS011;56754;51.568;5.048;2022-12-08T14:20:31;3.08;;;0.60;;
69534;SDS011;56754;51.568;5.048;2022-12-08T14:22:58;2.73;;;0.50;;
69534;SDS011;56754;51.568;5.048;2022-12-08T14:25:24;2.77;;;0.67;;
69534;SDS011;56754;51.568;5.048;2022-12-08T14:27:55;2.05;;;0.30;;
69534;SDS011;56754;51.568;5.048;2022-12-08T14:30:27;5.63;;;1.20;;
69534;SDS011;56754;51.568;5.048;2022-12-08T14:32:55;3.15;;;0.98;;
69534;SDS011;56754;51.568;5.048;2022-12-08T14:35:29;3.30;;;0.70;;
69534;SDS011;56754;51.568;5.048;2022-12-08T14:38:12;2.50;;;0.60;;
69534;SDS011;56754;51.568;5.048;2022-12-08T14:40:39;4.07;;;0.80;;
69534;SDS011;56754;51.568;5.048;2022-12-08T14:45:35;1.97;;;0.50;;
69534;SDS011;56754;51.568;5.048;2022-12-08T14:50:44;2.15;;;0.57;;
69534;SDS011;56754;51.568;5.048;2022-12-08T14:53:21;1.83;;;0.60;;
69534;SDS011;56754;51.568;5.048;2022-12-08T14:55:47;2.95;;;0.60;;
69534;SDS011;56754;51.568;5.048;2022-12-08T14:58:17;2.03;;;0.50;;
69534;SDS011;56754;51.568;5.048;2022-12-08T15:00:49;1.95;;;0.40;;
69534;SDS011;56754;51.568;5.048;2022-12-08T15:03:16;1.57;;;0.50;;
69534;SDS011;56754;51.568;5.048;2022-12-08T15:05:42;1.50;;;0.47;;
69534;SDS011;56754;51.568;5.048;2022-12-08T15:08:08;2.17;;;0.50;;
69534;SDS011;56754;51.568;5.048;2022-12-08T15:10:34;1.73;;;0.40;;
69534;SDS011;56754;51.568;5.048;2022-12-08T15:15:50;2.37;;;0.50;;
69534;SDS011;56754;51.568;5.048;2022-12-08T15:18:18;3.35;;;0.40;;
69534;SDS011;56754;51.568;5.048;2022-12-08T15:20:52;2.53;;;0.40;;
69534;SDS011;56754;51.568;5.048;2022-12-08T15:23:28;1.58;;;0.38;;
69534;SDS011;56754;51.568;5.048;2022-12-08T15:25:55;3.03;;;0.50;;
69534;SDS011;56754;51.568;5.048;2022-12-08T15:28:22;2.50;;;0.50;;
69534;SDS011;56754;51.568;5.048;2022-12-08T15:30:49;1.88;;;0.60;;
69534;SDS011;56754;51.568;5.048;2022-12-08T15:33:15;2.13;;;0.55;;
69534;SDS011;56754;51.568;5.048;2022-12-08T15:35:40;1.77;;;0.40;;
69534;SDS011;56754;51.568;5.048;2022-12-08T15:38:06;1.63;;;0.40;;
69534;SDS011;56754;51.568;5.048;2022-12-08T15:40:34;1.70;;;0.40;;
69534;SDS011;56754;51.568;5.048;2022-12-08T15:42:59;2.53;;;0.50;;
69534;SDS011;56754;51.568;5.048;2022-12-08T15:45:27;3.27;;;0.70;;
69534;SDS011;56754;51.568;5.048;2022-12-08T15:47:55;1.23;;;0.40;;
69534;SDS011;56754;51.568;5.048;2022-12-08T15:50:21;2.17;;;0.50;;
69534;SDS011;56754;51.568;5.048;2022-12-08T15:52:47;1.80;;;0.45;;
69534;SDS011;56754;51.568;5.048;2022-12-08T15:55:14;1.65;;;0.50;;
69534;SDS011;56754;51.568;5.048;2022-12-08T15:57:42;1.98;;;0.50;;
69534;SDS011;56754;51.568;5.048;2022-12-08T16:00:23;1.63;;;0.40;;
69534;SDS011;56754;51.568;5.048;2022-12-08T16:02:53;2.37;;;0.47;;
69534;SDS011;56754;51.568;5.048;2022-12-08T16:05:19;2.08;;;0.47;;
69534;SDS011;56754;51.568;5.048;2022-12-08T16:07:49;2.17;;;0.40;;
69534;SDS011;56754;51.568;5.048;2022-12-08T16:10:15;2.03;;;0.50;;
69534;SDS011;56754;51.568;5.048;2022-12-08T16:12:42;1.95;;;0.43;;
69534;SDS011;56754;51.568;5.048;2022-12-08T16:15:08;3.67;;;0.80;;
69534;SDS011;56754;51.568;5.048;2022-12-08T16:17:35;2.65;;;0.52;;
69534;SDS011;56754;51.568;5.048;2022-12-08T16:20:02;2.45;;;0.43;;
69534;SDS011;56754;51.568;5.048;2022-12-08T16:22:29;1.63;;;0.50;;
69534;SDS011;56754;51.568;5.048;2022-12-08T16:24:56;1.77;;;0.43;;
69534;SDS011;56754;51.568;5.048;2022-12-08T16:27:23;3.27;;;0.60;;
69534;SDS011;56754;51.568;5.048;2022-12-08T16:29:54;1.10;;;0.35;;